createdAt,value
2019-04-03T00:01:47.716Z,31.35
2019-04-03T00:04:20.678Z,33.18
2019-04-03T00:06:53.290Z,35.30
2019-04-03T00:09:26.004Z,34.35
2019-04-03T00:11:58.655Z,38.38
2019-04-03T00:14:31.176Z,37.13
2019-04-03T00:17:04.429Z,41.02
2019-04-03T00:19:36.705Z,60.00
2019-04-03T00:22:09.803Z,57.03
2019-04-03T00:24:42.076Z,62.58
2019-04-03T00:27:14.844Z,57.23
2019-04-03T00:29:47.048Z,53.48
2019-04-03T00:32:19.523Z,43.78
2019-04-03T00:34:53.432Z,41.75
2019-04-03T00:37:25.846Z,40.83
2019-04-03T00:39:58.584Z,41.33
2019-04-03T00:42:31.283Z,42.20
2019-04-03T00:45:03.799Z,37.23
2019-04-03T00:47:36.725Z,41.00
2019-04-03T00:50:09.736Z,46.83
2019-04-03T00:52:42.080Z,45.60
2019-04-03T00:55:14.631Z,46.10
2019-04-03T00:57:47.151Z,43.23
2019-04-03T01:00:20.067Z,46.37
2019-04-03T01:02:52.363Z,47.60
2019-04-03T01:05:24.785Z,48.90
2019-04-03T01:07:59.198Z,40.60
2019-04-03T01:10:31.202Z,47.70
2019-04-03T01:13:03.891Z,41.08
2019-04-03T01:15:36.316Z,42.40
2019-04-03T01:18:08.623Z,39.45
2019-04-03T01:20:41.164Z,35.25
2019-04-03T01:23:13.687Z,39.92
2019-04-03T01:25:46.099Z,35.78
2019-04-03T01:28:18.740Z,35.30
2019-04-03T01:30:50.843Z,38.65
2019-04-03T01:33:23.388Z,38.15
2019-04-03T01:35:55.595Z,37.90
2019-04-03T01:38:27.981Z,33.35
2019-04-03T01:41:00.491Z,33.15
2019-04-03T01:43:33.198Z,36.68
2019-04-03T01:46:05.899Z,34.83
2019-04-03T01:48:38.338Z,31.60
2019-04-03T01:51:11.008Z,32.67
2019-04-03T01:53:43.744Z,34.23
2019-04-03T01:56:16.063Z,29.18
2019-04-03T01:58:48.841Z,32.98
2019-04-03T02:01:21.299Z,28.30
2019-04-03T02:03:53.711Z,30.57
2019-04-03T02:06:26.019Z,31.17
2019-04-03T02:08:58.181Z,28.45
2019-04-03T02:11:30.979Z,30.23
2019-04-03T02:14:03.872Z,28.25
2019-04-03T02:16:36.458Z,30.02
2019-04-03T02:19:09.044Z,33.65
2019-04-03T02:21:41.358Z,26.10
2019-04-03T02:24:14.056Z,27.58
2019-04-03T02:26:46.378Z,26.70
2019-04-03T02:29:18.875Z,23.92
2019-04-03T02:31:52.713Z,26.02
2019-04-03T02:34:26.184Z,26.48
2019-04-03T02:36:58.979Z,27.48
2019-04-03T02:39:31.395Z,29.63
2019-04-03T02:42:09.310Z,28.35
2019-04-03T02:44:41.647Z,24.45
2019-04-03T02:47:14.708Z,26.37
2019-04-03T02:49:47.207Z,25.43
2019-04-03T02:52:19.841Z,24.55
2019-04-03T02:54:52.523Z,24.12
2019-04-03T02:57:25.165Z,22.98
2019-04-03T02:59:58.839Z,24.05
2019-04-03T03:02:31.161Z,24.87
2019-04-03T03:05:03.808Z,20.80
2019-04-03T03:07:36.955Z,24.27
2019-04-03T03:10:10.885Z,22.87
2019-04-03T03:12:43.578Z,24.12
2019-04-03T03:15:16.554Z,26.00
2019-04-03T03:17:49.457Z,22.48
2019-04-03T03:20:24.420Z,22.65
2019-04-03T03:22:58.777Z,20.85
2019-04-03T03:25:33.301Z,21.77
2019-04-03T03:28:06.176Z,24.67
2019-04-03T03:30:45.286Z,21.62
2019-04-03T03:33:28.268Z,19.82
2019-04-03T03:35:49.664Z,23.80
2019-04-03T03:38:21.729Z,20.85
2019-04-03T03:40:54.591Z,24.12
2019-04-03T03:43:27.836Z,19.35
2019-04-03T03:46:01.088Z,19.50
2019-04-03T03:48:34.382Z,20.68
2019-04-03T03:51:08.062Z,22.50
2019-04-03T03:53:44.067Z,22.52
2019-04-03T03:56:15.176Z,24.37
2019-04-03T03:58:48.821Z,20.08
2019-04-03T04:01:21.677Z,21.70
2019-04-03T04:03:54.413Z,21.48
2019-04-03T04:06:29.133Z,22.27
2019-04-03T04:09:02.299Z,22.05
2019-04-03T04:11:36.787Z,20.48
2019-04-03T04:14:09.529Z,23.12
2019-04-03T04:16:42.996Z,25.97
2019-04-03T04:19:15.880Z,22.93
2019-04-03T04:21:48.230Z,26.82
2019-04-03T04:24:21.103Z,23.45
2019-04-03T04:26:53.616Z,21.33
2019-04-03T04:29:26.498Z,25.60
2019-04-03T04:31:58.932Z,23.00
2019-04-03T04:34:31.496Z,21.00
2019-04-03T04:37:04.019Z,23.02
2019-04-03T04:39:38.119Z,24.07
2019-04-03T04:42:10.610Z,22.25
2019-04-03T04:44:43.384Z,24.30
2019-04-03T04:47:15.799Z,21.20
2019-04-03T04:49:48.358Z,24.65
2019-04-03T04:52:21.780Z,25.02
2019-04-03T04:54:54.124Z,23.83
2019-04-03T04:57:26.613Z,23.73
2019-04-03T04:59:59.068Z,20.82
2019-04-03T05:02:31.376Z,27.37
2019-04-03T05:05:04.016Z,21.00
2019-04-03T05:07:36.864Z,22.82
2019-04-03T05:10:09.965Z,22.48
2019-04-03T05:12:44.725Z,22.58
2019-04-03T05:15:19.156Z,26.95
2019-04-03T05:17:50.745Z,21.73
2019-04-03T05:20:23.177Z,21.17
2019-04-03T05:22:55.751Z,23.52
2019-04-03T05:25:29.806Z,19.60
2019-04-03T05:28:02.782Z,22.25
2019-04-03T05:30:38.001Z,21.60
2019-04-03T05:33:11.465Z,20.82
2019-04-03T05:35:46.276Z,19.55
2019-04-03T05:38:18.128Z,18.75
2019-04-03T05:40:51.010Z,18.80
2019-04-03T05:43:23.569Z,21.02
2019-04-03T05:45:56.558Z,20.82
2019-04-03T05:48:29.210Z,19.85
2019-04-03T05:51:01.671Z,18.87
2019-04-03T05:53:36.727Z,17.62
2019-04-03T05:56:08.080Z,18.32
2019-04-03T05:58:40.393Z,23.42
2019-04-03T06:01:13.017Z,23.62
2019-04-03T06:03:45.813Z,17.87
2019-04-03T06:06:18.329Z,18.27
2019-04-03T06:08:51.611Z,19.15
2019-04-03T06:11:25.136Z,19.30
2019-04-03T06:13:57.562Z,18.62
2019-04-03T06:16:30.220Z,19.40
2019-04-03T06:19:02.518Z,18.20
2019-04-03T06:21:34.962Z,18.82
2019-04-03T06:24:07.378Z,19.62
2019-04-03T06:26:40.213Z,18.80
2019-04-03T06:29:12.771Z,18.02
2019-04-03T06:31:45.385Z,22.65
2019-04-03T06:34:17.821Z,17.48
2019-04-03T06:36:50.716Z,22.13
2019-04-03T06:39:24.194Z,16.60
2019-04-03T06:41:57.116Z,20.57
2019-04-03T06:44:29.517Z,17.98
2019-04-03T06:47:02.273Z,17.87
2019-04-03T06:49:35.680Z,19.98
2019-04-03T06:52:09.297Z,28.27
2019-04-03T06:54:44.153Z,24.18
2019-04-03T06:57:15.489Z,22.62
2019-04-03T06:59:48.694Z,22.67
2019-04-03T07:02:21.948Z,30.27
2019-04-03T07:04:55.019Z,29.95
2019-04-03T07:07:34.287Z,27.70
2019-04-03T07:10:04.177Z,29.37
2019-04-03T07:12:36.554Z,28.87
2019-04-03T07:15:09.855Z,27.70
2019-04-03T07:17:42.445Z,27.07
2019-04-03T07:20:18.796Z,29.92
2019-04-03T07:22:48.964Z,31.48
2019-04-03T07:25:21.401Z,30.02
2019-04-03T07:27:54.291Z,29.55
2019-04-03T07:30:26.791Z,27.70
2019-04-03T07:32:59.545Z,27.13
2019-04-03T07:35:32.187Z,29.02
2019-04-03T07:38:04.800Z,40.90
2019-04-03T07:40:37.613Z,28.57
2019-04-03T07:43:10.189Z,24.98
2019-04-03T07:45:43.834Z,26.70
2019-04-03T07:48:17.191Z,23.98
2019-04-03T07:50:50.076Z,22.93
2019-04-03T07:53:22.598Z,19.82
2019-04-03T07:55:55.331Z,18.37
2019-04-03T07:58:30.659Z,17.35
2019-04-03T08:01:02.056Z,17.35
2019-04-03T08:03:34.751Z,19.27
2019-04-03T08:06:07.319Z,18.37
2019-04-03T08:08:39.966Z,21.48
2019-04-03T08:11:14.746Z,20.48
2019-04-03T08:13:46.398Z,23.67
2019-04-03T08:16:18.963Z,22.35
2019-04-03T08:18:52.047Z,24.23
2019-04-03T08:21:26.262Z,25.92
2019-04-03T08:23:58.914Z,21.23
2019-04-03T08:26:31.508Z,24.82
2019-04-03T08:29:04.172Z,23.00
2019-04-03T08:31:36.391Z,23.22
2019-04-03T08:34:15.849Z,22.22
2019-04-03T08:36:42.657Z,22.20
2019-04-03T08:39:16.037Z,22.10
2019-04-03T08:41:49.071Z,22.13
2019-04-03T08:44:21.922Z,18.73
2019-04-03T08:46:54.322Z,21.95
2019-04-03T08:49:27.215Z,20.75
2019-04-03T08:51:59.464Z,21.42
2019-04-03T08:54:32.102Z,21.30
2019-04-03T08:57:04.655Z,23.02
2019-04-03T08:59:37.280Z,24.00
2019-04-03T09:02:12.195Z,19.45
2019-04-03T09:04:43.381Z,23.47
2019-04-03T09:07:15.682Z,19.23
2019-04-03T09:09:48.574Z,19.95
2019-04-03T09:12:21.053Z,18.52
2019-04-03T09:14:56.380Z,16.23
2019-04-03T09:17:27.636Z,17.98
2019-04-03T09:20:00.573Z,19.07
2019-04-03T09:22:33.133Z,19.77
2019-04-03T09:25:07.484Z,23.90
2019-04-03T09:27:40.672Z,15.40
2019-04-03T09:30:16.223Z,15.88
2019-04-03T09:32:48.924Z,18.27
2019-04-03T09:35:22.099Z,18.95
2019-04-03T09:37:54.683Z,17.73
2019-04-03T09:40:27.296Z,23.15
2019-04-03T09:42:59.723Z,19.82
2019-04-03T09:45:32.803Z,19.32
2019-04-03T09:48:06.165Z,17.98
2019-04-03T09:50:38.963Z,20.25
2019-04-03T09:53:11.935Z,21.17
2019-04-03T09:55:44.686Z,18.42
2019-04-03T09:58:17.014Z,15.95
2019-04-03T10:00:49.917Z,18.17
2019-04-03T10:03:23.521Z,18.00
2019-04-03T10:05:56.484Z,14.63
2019-04-03T10:08:29.376Z,16.73
2019-04-03T10:11:01.788Z,17.57
2019-04-03T10:13:34.127Z,16.00
2019-04-03T10:16:07.100Z,15.53
2019-04-03T10:18:41.714Z,15.40
2019-04-03T10:21:13.906Z,14.70
2019-04-03T10:23:46.740Z,18.12
2019-04-03T10:26:19.752Z,13.98
2019-04-03T10:28:52.132Z,13.00
2019-04-03T10:31:24.856Z,15.70
2019-04-03T10:33:57.716Z,15.58
2019-04-03T10:36:30.138Z,15.03
2019-04-03T10:39:03.982Z,13.98
2019-04-03T10:41:36.292Z,17.73
2019-04-03T10:44:10.200Z,14.63
2019-04-03T10:46:42.673Z,14.53
2019-04-03T10:49:15.116Z,16.23
2019-04-03T10:51:47.433Z,16.05
2019-04-03T10:54:20.227Z,16.35
2019-04-03T10:56:52.592Z,16.23
2019-04-03T10:59:24.959Z,16.32
2019-04-03T11:01:57.180Z,15.85
2019-04-03T11:04:29.952Z,15.98
2019-04-03T11:07:02.501Z,15.98
2019-04-03T11:09:35.532Z,17.55
2019-04-03T11:12:10.146Z,18.57
2019-04-03T11:14:42.473Z,17.48
2019-04-03T11:17:17.544Z,17.80
2019-04-03T11:19:48.601Z,20.75
2019-04-03T11:22:21.215Z,21.10
2019-04-03T11:24:53.957Z,16.48
2019-04-03T11:27:40.875Z,18.57
2019-04-03T11:30:00.313Z,17.73
2019-04-03T11:32:32.930Z,17.23
2019-04-03T11:35:06.363Z,17.70
2019-04-03T11:37:38.674Z,19.48
2019-04-03T11:40:12.281Z,21.12
2019-04-03T11:42:44.694Z,20.80
2019-04-03T11:45:17.628Z,21.82
2019-04-03T11:47:50.149Z,31.57
2019-04-03T11:50:24.262Z,37.33
2019-04-03T11:52:56.978Z,37.58
2019-04-03T11:55:29.946Z,33.13
2019-04-03T11:58:02.573Z,32.78
2019-04-03T12:00:36.261Z,32.45
2019-04-03T12:03:10.800Z,37.08
2019-04-03T12:05:43.046Z,33.95
2019-04-03T12:08:15.947Z,35.33
2019-04-03T12:10:48.366Z,29.45
2019-04-03T12:13:21.668Z,31.77
2019-04-03T12:15:57.492Z,33.38
2019-04-03T12:18:28.526Z,30.23
2019-04-03T12:21:01.054Z,25.37
2019-04-03T12:23:33.515Z,29.07
2019-04-03T12:26:06.248Z,26.12
2019-04-03T12:28:40.647Z,31.15
2019-04-03T12:31:13.462Z,30.88
2019-04-03T12:33:53.157Z,26.77
2019-04-03T12:36:20.262Z,28.83
2019-04-03T12:38:55.041Z,31.77
2019-04-03T12:41:27.508Z,32.17
2019-04-03T12:44:00.280Z,29.80
2019-04-03T12:46:34.152Z,27.42
2019-04-03T12:49:08.123Z,28.35
2019-04-03T12:51:41.165Z,28.35
2019-04-03T12:54:14.120Z,29.90
2019-04-03T12:56:47.023Z,28.00
2019-04-03T12:59:20.963Z,28.17
2019-04-03T13:01:53.183Z,33.75
2019-04-03T13:04:26.463Z,32.88
2019-04-03T13:06:59.343Z,32.63
2019-04-03T13:09:31.897Z,36.55
2019-04-03T13:12:04.457Z,30.90
2019-04-03T13:14:36.840Z,29.40
2019-04-03T13:17:12.706Z,31.35
2019-04-03T13:19:43.260Z,25.75
2019-04-03T13:22:18.133Z,30.30
2019-04-03T13:24:49.653Z,28.55
2019-04-03T13:27:22.037Z,32.40
2019-04-03T13:29:54.356Z,25.15
2019-04-03T13:32:27.240Z,30.52
2019-04-03T13:34:59.537Z,31.07
2019-04-03T13:37:32.100Z,32.85
2019-04-03T13:40:06.360Z,39.35
2019-04-03T13:42:39.144Z,36.15
2019-04-03T13:45:12.486Z,39.15
2019-04-03T13:47:47.046Z,42.03
2019-04-03T13:50:21.851Z,36.95
2019-04-03T13:52:53.609Z,34.10
2019-04-03T13:55:28.516Z,39.90
2019-04-03T13:58:00.356Z,35.38
2019-04-03T14:00:33.823Z,33.38
2019-04-03T14:03:07.020Z,32.60
2019-04-03T14:05:42.083Z,31.75
2019-04-03T14:08:13.592Z,30.68
2019-04-03T14:10:46.375Z,29.18
2019-04-03T14:13:19.083Z,33.42
2019-04-03T14:15:51.516Z,31.27
2019-04-03T14:18:23.884Z,30.30
2019-04-03T14:20:57.088Z,31.55
2019-04-03T14:23:29.582Z,35.05
2019-04-03T14:26:06.306Z,34.88
2019-04-03T14:28:35.974Z,32.45
2019-04-03T14:31:08.598Z,29.95
2019-04-03T14:33:44.128Z,31.25
2019-04-03T14:36:17.742Z,30.23
2019-04-03T14:38:48.297Z,28.95
2019-04-03T14:41:20.787Z,29.77
2019-04-03T14:43:53.162Z,31.12
2019-04-03T14:46:25.884Z,33.78
2019-04-03T14:48:59.632Z,33.67
2019-04-03T14:51:32.105Z,35.08
2019-04-03T14:54:04.498Z,30.40
2019-04-03T14:56:37.047Z,32.70
2019-04-03T14:59:10.141Z,35.43
2019-04-03T15:01:43.205Z,33.28
2019-04-03T15:04:16.296Z,35.68
2019-04-03T15:07:00.501Z,38.63
2019-04-03T15:09:22.485Z,44.05
2019-04-03T15:11:54.638Z,40.33
2019-04-03T15:14:27.970Z,41.05
2019-04-03T15:17:04.150Z,38.28
2019-04-03T15:19:34.954Z,44.25
2019-04-03T15:22:07.695Z,38.88
2019-04-03T15:24:42.321Z,39.90
2019-04-03T15:27:14.788Z,41.45
2019-04-03T15:29:47.737Z,37.03
2019-04-03T15:32:20.470Z,32.80
2019-04-03T15:34:54.179Z,34.13
2019-04-03T15:37:26.518Z,32.00
2019-04-03T15:39:59.181Z,33.30
2019-04-03T15:42:32.411Z,30.65
2019-04-03T15:45:05.710Z,31.80
2019-04-03T15:47:41.752Z,32.75
2019-04-03T15:50:12.318Z,32.40
2019-04-03T15:52:48.460Z,30.60
2019-04-03T15:55:19.762Z,36.93
2019-04-03T15:57:53.863Z,31.95
2019-04-03T16:00:28.394Z,32.95
2019-04-03T16:03:01.255Z,33.65
2019-04-03T16:05:36.497Z,33.05
2019-04-03T16:08:11.699Z,33.58
2019-04-03T16:10:43.011Z,30.75
2019-04-03T16:13:16.084Z,31.90
2019-04-03T16:15:49.099Z,30.15
2019-04-03T16:18:21.640Z,34.43
2019-04-03T16:20:54.071Z,36.80
2019-04-03T16:23:26.391Z,32.17
2019-04-03T16:25:58.831Z,36.75
2019-04-03T16:28:33.278Z,33.60
2019-04-03T16:31:06.236Z,33.53
2019-04-03T16:33:38.990Z,36.28
2019-04-03T16:36:12.161Z,37.03
2019-04-03T16:38:44.756Z,35.25
2019-04-03T16:41:18.010Z,34.38
2019-04-03T16:43:50.327Z,28.90
2019-04-03T16:46:23.636Z,29.70
2019-04-03T16:48:55.846Z,31.70
2019-04-03T16:51:30.796Z,30.27
2019-04-03T16:54:02.102Z,31.15
2019-04-03T16:56:34.858Z,31.97
2019-04-03T16:59:07.923Z,30.62
2019-04-03T17:01:44.358Z,31.23
2019-04-03T17:04:24.961Z,31.62
2019-04-03T17:06:49.095Z,28.25
2019-04-03T17:09:22.169Z,30.77
2019-04-03T17:11:54.849Z,33.00
2019-04-03T17:14:27.290Z,28.95
2019-04-03T17:17:00.010Z,30.72
2019-04-03T17:19:32.831Z,32.75
2019-04-03T17:22:06.661Z,30.95
2019-04-03T17:24:42.776Z,34.90
2019-04-03T17:27:13.092Z,31.52
2019-04-03T17:29:46.135Z,28.80
2019-04-03T17:32:19.571Z,37.38
2019-04-03T17:34:52.326Z,34.53
2019-04-03T17:37:26.404Z,28.15
2019-04-03T17:39:58.652Z,30.25
2019-04-03T17:42:31.163Z,29.80
2019-04-03T17:45:03.608Z,30.37
2019-04-03T17:47:36.198Z,30.57
2019-04-03T17:50:09.628Z,30.75
2019-04-03T17:52:42.211Z,29.80
2019-04-03T17:55:15.176Z,28.92
2019-04-03T17:57:47.801Z,31.25
2019-04-03T18:00:22.414Z,28.60
2019-04-03T18:02:55.185Z,28.12
2019-04-03T18:05:27.587Z,28.75
2019-04-03T18:08:00.009Z,31.30
2019-04-03T18:10:32.587Z,25.85
2019-04-03T18:13:05.389Z,26.55
2019-04-03T18:15:37.861Z,24.37
2019-04-03T18:18:10.769Z,24.25
2019-04-03T18:20:44.677Z,27.00
2019-04-03T18:23:17.081Z,26.20
2019-04-03T18:25:49.302Z,25.08
2019-04-03T18:28:22.023Z,25.88
2019-04-03T18:30:54.459Z,24.43
2019-04-03T18:33:27.016Z,26.77
2019-04-03T18:35:59.324Z,22.90
2019-04-03T18:38:31.681Z,22.98
2019-04-03T18:41:04.350Z,23.92
2019-04-03T18:43:36.998Z,25.00
2019-04-03T18:46:09.750Z,24.27
2019-04-03T18:48:52.833Z,25.15
2019-04-03T18:51:15.816Z,25.90
2019-04-03T18:53:49.123Z,24.20
2019-04-03T18:56:21.788Z,22.67
2019-04-03T18:58:55.012Z,28.25
2019-04-03T19:01:28.429Z,24.72
2019-04-03T19:04:00.951Z,26.35
2019-04-03T19:06:33.682Z,27.48
2019-04-03T19:09:09.966Z,28.02
2019-04-03T19:11:42.622Z,27.40
2019-04-03T19:14:26.593Z,23.47
2019-04-03T19:16:52.422Z,26.50
2019-04-03T19:19:23.685Z,23.57
2019-04-03T19:21:56.433Z,26.87
2019-04-03T19:24:28.989Z,23.15
2019-04-03T19:27:02.336Z,24.43
2019-04-03T19:29:35.759Z,23.62
2019-04-03T19:32:11.857Z,23.87
2019-04-03T19:34:42.609Z,25.45
2019-04-03T19:37:14.953Z,29.15
2019-04-03T19:39:47.161Z,27.17
2019-04-03T19:42:19.828Z,24.80
2019-04-03T19:44:52.670Z,27.32
2019-04-03T19:47:25.513Z,29.23
2019-04-03T19:50:00.026Z,27.02
2019-04-03T19:52:31.944Z,27.20
2019-04-03T19:55:05.138Z,27.55
2019-04-03T19:57:39.134Z,26.82
2019-04-03T20:00:12.250Z,25.15
2019-04-03T20:02:45.170Z,29.12
2019-04-03T20:05:18.976Z,27.30
2019-04-03T20:07:51.141Z,29.37
2019-04-03T20:10:23.656Z,30.35
2019-04-03T20:12:56.342Z,32.15
2019-04-03T20:15:28.865Z,31.10
2019-04-03T20:18:01.546Z,32.65
2019-04-03T20:20:34.025Z,30.52
2019-04-03T20:23:06.652Z,28.95
2019-04-03T20:25:39.245Z,30.40
2019-04-03T20:28:12.319Z,32.70
2019-04-03T20:30:44.859Z,30.12
2019-04-03T20:33:17.276Z,32.67
2019-04-03T20:35:49.751Z,34.33
2019-04-03T20:38:22.757Z,35.43
2019-04-03T20:40:55.109Z,28.47
2019-04-03T20:43:27.570Z,32.85
2019-04-03T20:46:01.698Z,35.92
2019-04-03T20:48:33.930Z,31.70
2019-04-03T20:51:08.795Z,33.95
2019-04-03T20:53:41.723Z,32.63
2019-04-03T20:56:14.165Z,33.67
2019-04-03T20:58:55.709Z,31.50
2019-04-03T21:01:20.208Z,34.45
2019-04-03T21:03:53.197Z,32.20
2019-04-03T21:06:25.655Z,31.82
2019-04-03T21:08:59.401Z,34.85
2019-04-03T21:11:34.534Z,30.15
2019-04-03T21:14:06.961Z,34.53
2019-04-03T21:16:39.384Z,33.28
2019-04-03T21:19:12.156Z,35.88
2019-04-03T21:21:44.646Z,33.08
2019-04-03T21:24:17.251Z,33.48
2019-04-03T21:26:49.435Z,32.30
2019-04-03T21:29:21.886Z,30.45
2019-04-03T21:31:56.520Z,37.53
2019-04-03T21:34:28.309Z,32.40
2019-04-03T21:37:00.804Z,35.38
2019-04-03T21:39:33.928Z,36.85
2019-04-03T21:42:06.585Z,34.75
2019-04-03T21:44:39.260Z,33.65
2019-04-03T21:47:12.251Z,33.38
2019-04-03T21:49:47.401Z,32.93
2019-04-03T21:52:18.767Z,34.67
2019-04-03T21:54:51.229Z,37.50
2019-04-03T21:57:23.636Z,29.95
2019-04-03T21:59:56.687Z,37.58
2019-04-03T22:02:29.216Z,35.70
2019-04-03T22:05:01.969Z,34.65
2019-04-03T22:07:35.002Z,37.98
2019-04-03T22:10:09.315Z,40.12
2019-04-03T22:12:41.761Z,35.48
2019-04-03T22:15:15.759Z,34.35
2019-04-03T22:17:48.763Z,39.10
2019-04-03T22:20:21.083Z,45.40
2019-04-03T22:22:54.209Z,44.50
2019-04-03T22:25:27.254Z,40.80
2019-04-03T22:27:59.677Z,41.50
2019-04-03T22:30:32.734Z,41.77
2019-04-03T22:33:05.098Z,41.65
2019-04-03T22:35:37.521Z,41.05
2019-04-03T22:38:09.932Z,42.20
2019-04-03T22:40:42.317Z,40.28
2019-04-03T22:43:16.225Z,41.40
2019-04-03T22:45:50.481Z,49.20
2019-04-03T22:48:22.710Z,46.10
2019-04-03T22:50:55.291Z,49.18
2019-04-03T22:53:28.222Z,41.48
2019-04-03T22:56:01.066Z,44.13
2019-04-03T22:58:33.368Z,41.68
2019-04-03T23:01:06.171Z,46.68
2019-04-03T23:03:42.106Z,60.35
2019-04-03T23:06:16.869Z,56.63
2019-04-03T23:08:51.836Z,60.35
2019-04-03T23:11:24.354Z,51.13
2019-04-03T23:13:56.780Z,40.67
2019-04-03T23:16:30.198Z,42.23
2019-04-03T23:19:03.191Z,41.28
2019-04-03T23:21:35.712Z,42.70
2019-04-03T23:24:09.003Z,38.30
2019-04-03T23:26:41.661Z,39.30
2019-04-03T23:29:14.509Z,43.95
2019-04-03T23:31:46.957Z,38.67
2019-04-03T23:34:19.674Z,43.05
2019-04-03T23:36:54.268Z,65.65
2019-04-03T23:39:28.032Z,121.67
2019-04-03T23:42:00.815Z,103.70
2019-04-03T23:44:33.145Z,88.22
2019-04-03T23:47:06.775Z,132.30
2019-04-03T23:49:41.102Z,177.65
2019-04-03T23:52:13.111Z,152.90
2019-04-03T23:54:45.549Z,155.55
2019-04-03T23:57:18.300Z,97.60
2019-04-03T23:59:51.085Z,81.92
